sensor_id;sensor_type;location;lat;lon;timestamp;pressure;altitude;pressure_sealevel;temperature;humidity
67457;BME280;54319;52.038;4.640;2024-01-07T00:01:39;101886.81;;;1.15;100.00
67457;BME280;54319;52.038;4.640;2024-01-07T00:04:06;101891.69;;;1.10;100.00
67457;BME280;54319;52.038;4.640;2024-01-07T00:06:33;101876.81;;;0.94;100.00
67457;BME280;54319;52.038;4.640;2024-01-07T00:09:00;101890.97;;;1.08;100.00
67457;BME280;54319;52.038;4.640;2024-01-07T00:11:27;101896.59;;;1.05;100.00
67457;BME280;54319;52.038;4.640;2024-01-07T00:13:53;101896.00;;;1.01;100.00
67457;BME280;54319;52.038;4.640;2024-01-07T00:16:22;101894.78;;;1.05;100.00
67457;BME280;54319;52.038;4.640;2024-01-07T00:18:55;101908.06;;;1.07;100.00
67457;BME280;54319;52.038;4.640;2024-01-07T00:21:21;101903.91;;;1.03;100.00
67457;BME280;54319;52.038;4.640;2024-01-07T00:23:48;101907.72;;;1.00;100.00
67457;BME280;54319;52.038;4.640;2024-01-07T00:26:14;101909.03;;;1.06;100.00
67457;BME280;54319;52.038;4.640;2024-01-07T00:28:41;101900.66;;;0.99;100.00
67457;BME280;54319;52.038;4.640;2024-01-07T00:31:08;101911.97;;;1.03;100.00
67457;BME280;54319;52.038;4.640;2024-01-07T00:33:36;101913.94;;;1.00;100.00
67457;BME280;54319;52.038;4.640;2024-01-07T00:36:04;101919.31;;;1.00;100.00
67457;BME280;54319;52.038;4.640;2024-01-07T00:38:31;101918.00;;;0.95;100.00
67457;BME280;54319;52.038;4.640;2024-01-07T00:40:58;101901.00;;;0.94;100.00
67457;BME280;54319;52.038;4.640;2024-01-07T00:43:24;101922.88;;;1.01;100.00
67457;BME280;54319;52.038;4.640;2024-01-07T00:45:51;101929.31;;;0.98;100.00
67457;BME280;54319;52.038;4.640;2024-01-07T00:48:18;101922.00;;;1.00;100.00
67457;BME280;54319;52.038;4.640;2024-01-07T00:50:46;101917.13;;;0.94;100.00
67457;BME280;54319;52.038;4.640;2024-01-07T00:53:13;101928.50;;;0.98;100.00
67457;BME280;54319;52.038;4.640;2024-01-07T00:55:40;101920.28;;;0.99;100.00
67457;BME280;54319;52.038;4.640;2024-01-07T00:58:06;101923.13;;;0.98;100.00
67457;BME280;54319;52.038;4.640;2024-01-07T01:00:33;101921.03;;;1.01;100.00
67457;BME280;54319;52.038;4.640;2024-01-07T01:03:00;101931.03;;;0.99;100.00
67457;BME280;54319;52.038;4.640;2024-01-07T01:05:26;101899.53;;;0.79;100.00
67457;BME280;54319;52.038;4.640;2024-01-07T01:07:54;101909.19;;;0.81;100.00
67457;BME280;54319;52.038;4.640;2024-01-07T01:10:21;101934.94;;;0.95;100.00
67457;BME280;54319;52.038;4.640;2024-01-07T01:12:48;101928.13;;;0.91;100.00
67457;BME280;54319;52.038;4.640;2024-01-07T01:15:14;101939.59;;;0.93;100.00
67457;BME280;54319;52.038;4.640;2024-01-07T01:17:42;101937.63;;;0.95;100.00
67457;BME280;54319;52.038;4.640;2024-01-07T01:20:09;101933.97;;;0.96;100.00
67457;BME280;54319;52.038;4.640;2024-01-07T01:22:36;101942.03;;;0.96;100.00
67457;BME280;54319;52.038;4.640;2024-01-07T01:25:05;101941.78;;;0.99;100.00
67457;BME280;54319;52.038;4.640;2024-01-07T01:27:32;101931.78;;;0.90;100.00
67457;BME280;54319;52.038;4.640;2024-01-07T01:29:58;101955.97;;;0.90;100.00
67457;BME280;54319;52.038;4.640;2024-01-07T01:32:25;101935.94;;;0.83;100.00
67457;BME280;54319;52.038;4.640;2024-01-07T01:34:52;101950.09;;;0.85;100.00
67457;BME280;54319;52.038;4.640;2024-01-07T01:37:18;101956.94;;;0.89;100.00
67457;BME280;54319;52.038;4.640;2024-01-07T01:39:45;101951.81;;;0.86;100.00
67457;BME280;54319;52.038;4.640;2024-01-07T01:42:13;101955.47;;;0.85;100.00
67457;BME280;54319;52.038;4.640;2024-01-07T01:44:39;101960.59;;;0.88;100.00
67457;BME280;54319;52.038;4.640;2024-01-07T01:47:07;101960.22;;;0.93;100.00
67457;BME280;54319;52.038;4.640;2024-01-07T01:49:35;101964.13;;;0.89;100.00
67457;BME280;54319;52.038;4.640;2024-01-07T01:52:03;101965.97;;;0.88;100.00
67457;BME280;54319;52.038;4.640;2024-01-07T01:54:30;101954.09;;;0.79;100.00
67457;BME280;54319;52.038;4.640;2024-01-07T01:56:57;101965.47;;;0.83;100.00
67457;BME280;54319;52.038;4.640;2024-01-07T01:59:25;101974.75;;;0.79;100.00
67457;BME280;54319;52.038;4.640;2024-01-07T02:01:52;101976.34;;;0.81;100.00
67457;BME280;54319;52.038;4.640;2024-01-07T02:04:19;101980.13;;;0.79;100.00
67457;BME280;54319;52.038;4.640;2024-01-07T02:06:45;101977.44;;;0.79;100.00
67457;BME280;54319;52.038;4.640;2024-01-07T02:09:12;101969.50;;;0.77;100.00
67457;BME280;54319;52.038;4.640;2024-01-07T02:11:39;101982.81;;;0.79;100.00
67457;BME280;54319;52.038;4.640;2024-01-07T02:14:05;101986.69;;;0.75;100.00
67457;BME280;54319;52.038;4.640;2024-01-07T02:16:33;101983.41;;;0.71;100.00
67457;BME280;54319;52.038;4.640;2024-01-07T02:19:01;101986.94;;;0.71;100.00
67457;BME280;54319;52.038;4.640;2024-01-07T02:21:28;101941.50;;;0.46;100.00
67457;BME280;54319;52.038;4.640;2024-01-07T02:23:55;101995.72;;;0.74;100.00
67457;BME280;54319;52.038;4.640;2024-01-07T02:26:24;101992.06;;;0.75;100.00
67457;BME280;54319;52.038;4.640;2024-01-07T02:28:50;101997.69;;;0.71;100.00
67457;BME280;54319;52.038;4.640;2024-01-07T02:31:17;102003.03;;;0.71;100.00
67457;BME280;54319;52.038;4.640;2024-01-07T02:33:43;101998.78;;;0.69;100.00
67457;BME280;54319;52.038;4.640;2024-01-07T02:36:10;102001.72;;;0.66;100.00
67457;BME280;54319;52.038;4.640;2024-01-07T02:38:37;102007.94;;;0.66;100.00
67457;BME280;54319;52.038;4.640;2024-01-07T02:41:04;102002.56;;;0.66;100.00
67457;BME280;54319;52.038;4.640;2024-01-07T02:43:32;102011.47;;;0.67;100.00
67457;BME280;54319;52.038;4.640;2024-01-07T02:45:59;102021.34;;;0.66;100.00
67457;BME280;54319;52.038;4.640;2024-01-07T02:48:26;102021.13;;;0.69;100.00
67457;BME280;54319;52.038;4.640;2024-01-07T02:50:52;102014.75;;;0.59;100.00
67457;BME280;54319;52.038;4.640;2024-01-07T02:53:19;102020.25;;;0.57;100.00
67457;BME280;54319;52.038;4.640;2024-01-07T02:55:49;102013.28;;;0.55;100.00
67457;BME280;54319;52.038;4.640;2024-01-07T02:58:15;102024.84;;;0.55;100.00
67457;BME280;54319;52.038;4.640;2024-01-07T03:00:43;102006.91;;;0.45;100.00
67457;BME280;54319;52.038;4.640;2024-01-07T03:03:10;101999.09;;;0.41;100.00
67457;BME280;54319;52.038;4.640;2024-01-07T03:05:37;102023.16;;;0.54;100.00
67457;BME280;54319;52.038;4.640;2024-01-07T03:08:04;102024.50;;;0.49;100.00
67457;BME280;54319;52.038;4.640;2024-01-07T03:10:31;102013.59;;;0.39;100.00
67457;BME280;54319;52.038;4.640;2024-01-07T03:12:58;102027.16;;;0.49;100.00
67457;BME280;54319;52.038;4.640;2024-01-07T03:15:28;102037.41;;;0.43;100.00
67457;BME280;54319;52.038;4.640;2024-01-07T03:17:57;102032.78;;;0.46;100.00
67457;BME280;54319;52.038;4.640;2024-01-07T03:20:23;102031.16;;;0.43;100.00
67457;BME280;54319;52.038;4.640;2024-01-07T03:22:50;102042.88;;;0.42;100.00
67457;BME280;54319;52.038;4.640;2024-01-07T03:25:20;102049.13;;;0.42;100.00
67457;BME280;54319;52.038;4.640;2024-01-07T03:27:47;102043.63;;;0.44;100.00
67457;BME280;54319;52.038;4.640;2024-01-07T03:30:13;102048.00;;;0.45;100.00
67457;BME280;54319;52.038;4.640;2024-01-07T03:32:41;102054.34;;;0.44;100.00
67457;BME280;54319;52.038;4.640;2024-01-07T03:35:09;102020.00;;;0.25;100.00
67457;BME280;54319;52.038;4.640;2024-01-07T03:37:36;102036.13;;;0.36;100.00
67457;BME280;54319;52.038;4.640;2024-01-07T03:40:07;102049.72;;;0.46;100.00
67457;BME280;54319;52.038;4.640;2024-01-07T03:42:36;102050.84;;;0.43;100.00
67457;BME280;54319;52.038;4.640;2024-01-07T03:45:05;102056.44;;;0.40;100.00
67457;BME280;54319;52.038;4.640;2024-01-07T03:47:32;102067.19;;;0.40;100.00
67457;BME280;54319;52.038;4.640;2024-01-07T03:49:59;102051.41;;;0.36;100.00
67457;BME280;54319;52.038;4.640;2024-01-07T03:52:28;102073.38;;;0.41;100.00
67457;BME280;54319;52.038;4.640;2024-01-07T03:54:55;102072.88;;;0.36;100.00
67457;BME280;54319;52.038;4.640;2024-01-07T03:57:22;102081.66;;;0.38;100.00
67457;BME280;54319;52.038;4.640;2024-01-07T03:59:48;102087.69;;;0.41;100.00
67457;BME280;54319;52.038;4.640;2024-01-07T04:02:15;102074.09;;;0.32;100.00
67457;BME280;54319;52.038;4.640;2024-01-07T04:04:42;102088.97;;;0.36;100.00
67457;BME280;54319;52.038;4.640;2024-01-07T04:07:09;102088.84;;;0.37;100.00
67457;BME280;54319;52.038;4.640;2024-01-07T04:09:37;102103.16;;;0.38;100.00
67457;BME280;54319;52.038;4.640;2024-01-07T04:12:04;102103.78;;;0.41;100.00
67457;BME280;54319;52.038;4.640;2024-01-07T04:14:31;102092.47;;;0.25;100.00
67457;BME280;54319;52.038;4.640;2024-01-07T04:16:58;102114.97;;;0.35;100.00
67457;BME280;54319;52.038;4.640;2024-01-07T04:19:25;102107.13;;;0.32;100.00
67457;BME280;54319;52.038;4.640;2024-01-07T04:21:54;102110.91;;;0.30;100.00
67457;BME280;54319;52.038;4.640;2024-01-07T04:24:24;102108.84;;;0.33;100.00
67457;BME280;54319;52.038;4.640;2024-01-07T04:26:52;102113.16;;;0.36;100.00
67457;BME280;54319;52.038;4.640;2024-01-07T04:29:19;102117.78;;;0.34;100.00
67457;BME280;54319;52.038;4.640;2024-01-07T04:31:46;102114.00;;;0.36;100.00
67457;BME280;54319;52.038;4.640;2024-01-07T04:34:13;102114.97;;;0.35;100.00
67457;BME280;54319;52.038;4.640;2024-01-07T04:36:40;102110.91;;;0.30;100.00
67457;BME280;54319;52.038;4.640;2024-01-07T04:39:07;102120.56;;;0.32;100.00
67457;BME280;54319;52.038;4.640;2024-01-07T04:41:35;102121.44;;;0.33;100.00
67457;BME280;54319;52.038;4.640;2024-01-07T04:44:04;102117.78;;;0.34;100.00
67457;BME280;54319;52.038;4.640;2024-01-07T04:46:33;102118.63;;;0.34;100.00
67457;BME280;54319;52.038;4.640;2024-01-07T04:49:00;102113.25;;;0.34;100.00
67457;BME280;54319;52.038;4.640;2024-01-07T04:51:27;102130.97;;;0.37;100.00
67457;BME280;54319;52.038;4.640;2024-01-07T04:53:53;102133.00;;;0.33;100.00
67457;BME280;54319;52.038;4.640;2024-01-07T04:56:20;102133.38;;;0.28;100.00
67457;BME280;54319;52.038;4.640;2024-01-07T04:58:49;102123.72;;;0.13;100.00
67457;BME280;54319;52.038;4.640;2024-01-07T05:01:17;102139.81;;;0.26;100.00
67457;BME280;54319;52.038;4.640;2024-01-07T05:03:44;102141.88;;;0.22;100.00
67457;BME280;54319;52.038;4.640;2024-01-07T05:06:12;102153.56;;;0.21;100.00
67457;BME280;54319;52.038;4.640;2024-01-07T05:08:40;102140.34;;;0.18;100.00
67457;BME280;54319;52.038;4.640;2024-01-07T05:11:07;102152.47;;;0.24;100.00
67457;BME280;54319;52.038;4.640;2024-01-07T05:13:34;102127.31;;;0.01;100.00
67457;BME280;54319;52.038;4.640;2024-01-07T05:16:01;102140.41;;;0.05;100.00
67457;BME280;54319;52.038;4.640;2024-01-07T05:18:29;102151.66;;;0.10;100.00
67457;BME280;54319;52.038;4.640;2024-01-07T05:20:56;102156.16;;;0.10;100.00
67457;BME280;54319;52.038;4.640;2024-01-07T05:23:22;102169.88;;;0.18;100.00
67457;BME280;54319;52.038;4.640;2024-01-07T05:25:49;102172.56;;;0.18;100.00
67457;BME280;54319;52.038;4.640;2024-01-07T05:28:20;102154.56;;;0.07;100.00
67457;BME280;54319;52.038;4.640;2024-01-07T05:30:47;102175.38;;;0.17;100.00
67457;BME280;54319;52.038;4.640;2024-01-07T05:33:15;102175.38;;;0.17;100.00
67457;BME280;54319;52.038;4.640;2024-01-07T05:35:43;102185.34;;;0.14;100.00
67457;BME280;54319;52.038;4.640;2024-01-07T05:38:10;102175.38;;;0.17;100.00
67457;BME280;54319;52.038;4.640;2024-01-07T05:40:37;102186.31;;;0.13;100.00
67457;BME280;54319;52.038;4.640;2024-01-07T05:43:04;102191.69;;;0.13;100.00
67457;BME280;54319;52.038;4.640;2024-01-07T05:45:30;102196.31;;;0.11;100.00
67457;BME280;54319;52.038;4.640;2024-01-07T05:47:57;102191.91;;;0.10;100.00
67457;BME280;54319;52.038;4.640;2024-01-07T05:50:26;102193.41;;;0.14;100.00
67457;BME280;54319;52.038;4.640;2024-01-07T05:52:54;102207.78;;;0.13;100.00
67457;BME280;54319;52.038;4.640;2024-01-07T05:55:21;102214.00;;;0.14;100.00
67457;BME280;54319;52.038;4.640;2024-01-07T05:57:47;102202.22;;;0.17;100.00
67457;BME280;54319;52.038;4.640;2024-01-07T06:00:15;102201.16;;;0.19;100.00
67457;BME280;54319;52.038;4.640;2024-01-07T06:02:41;102202.44;;;0.13;100.00
67457;BME280;54319;52.038;4.640;2024-01-07T06:05:09;102215.94;;;0.25;100.00
67457;BME280;54319;52.038;4.640;2024-01-07T06:07:35;102212.50;;;0.23;100.00
67457;BME280;54319;52.038;4.640;2024-01-07T06:10:04;102223.00;;;0.26;100.00
67457;BME280;54319;52.038;4.640;2024-01-07T06:12:31;102219.56;;;0.24;100.00
67457;BME280;54319;52.038;4.640;2024-01-07T06:14:58;102232.69;;;0.28;100.00
67457;BME280;54319;52.038;4.640;2024-01-07T06:17:25;102237.19;;;0.28;100.00
67457;BME280;54319;52.038;4.640;2024-01-07T06:19:51;102238.38;;;0.24;100.00
67457;BME280;54319;52.038;4.640;2024-01-07T06:22:18;102234.84;;;0.23;100.00
67457;BME280;54319;52.038;4.640;2024-01-07T06:24:45;102231.19;;;0.24;100.00
67457;BME280;54319;52.038;4.640;2024-01-07T06:27:13;102249.84;;;0.26;100.00
67457;BME280;54319;52.038;4.640;2024-01-07T06:29:42;102259.97;;;0.22;100.00
67457;BME280;54319;52.038;4.640;2024-01-07T06:32:09;102253.63;;;0.23;100.00
67457;BME280;54319;52.038;4.640;2024-01-07T06:34:35;102262.53;;;0.24;100.00
67457;BME280;54319;52.038;4.640;2024-01-07T06:37:03;102258.88;;;0.25;100.00
67457;BME280;54319;52.038;4.640;2024-01-07T06:39:30;102267.91;;;0.24;100.00
67457;BME280;54319;52.038;4.640;2024-01-07T06:41:57;102267.91;;;0.24;100.00
67457;BME280;54319;52.038;4.640;2024-01-07T06:44:26;102278.63;;;0.24;100.00
67457;BME280;54319;52.038;4.640;2024-01-07T06:46:53;102284.00;;;0.24;100.00
67457;BME280;54319;52.038;4.640;2024-01-07T06:49:19;102265.97;;;0.13;100.00
67457;BME280;54319;52.038;4.640;2024-01-07T06:51:46;102280.34;;;0.25;100.00
67457;BME280;54319;52.038;4.640;2024-01-07T06:54:13;102292.19;;;0.22;100.00
67457;BME280;54319;52.038;4.640;2024-01-07T06:56:39;102300.22;;;0.22;100.00
67457;BME280;54319;52.038;4.640;2024-01-07T06:59:07;102308.28;;;0.22;100.00
67457;BME280;54319;52.038;4.640;2024-01-07T07:01:36;102301.81;;;0.25;100.00
67457;BME280;54319;52.038;4.640;2024-01-07T07:04:05;102304.63;;;0.23;100.00
67457;BME280;54319;52.038;4.640;2024-01-07T07:06:32;102316.00;;;0.27;100.00
67457;BME280;54319;52.038;4.640;2024-01-07T07:08:59;102316.13;;;0.25;100.00
67457;BME280;54319;52.038;4.640;2024-01-07T07:11:26;102316.22;;;0.24;100.00
67457;BME280;54319;52.038;4.640;2024-01-07T07:13:53;102313.09;;;0.17;100.00
67457;BME280;54319;52.038;4.640;2024-01-07T07:16:20;102322.66;;;0.21;100.00
67457;BME280;54319;52.038;4.640;2024-01-07T07:18:50;102325.22;;;0.23;100.00
67457;BME280;54319;52.038;4.640;2024-01-07T07:21:19;102330.38;;;0.26;100.00
67457;BME280;54319;52.038;4.640;2024-01-07T07:23:46;102325.97;;;0.25;100.00
67457;BME280;54319;52.038;4.640;2024-01-07T07:26:14;102332.22;;;0.25;100.00
67457;BME280;54319;52.038;4.640;2024-01-07T07:28:41;102337.59;;;0.25;100.00
67457;BME280;54319;52.038;4.640;2024-01-07T07:31:08;102342.09;;;0.25;100.00
67457;BME280;54319;52.038;4.640;2024-01-07T07:33:38;102347.88;;;0.19;100.00
67457;BME280;54319;52.038;4.640;2024-01-07T07:36:07;102328.63;;;-0.01;100.00
67457;BME280;54319;52.038;4.640;2024-01-07T07:38:33;102364.00;;;0.19;100.00
67457;BME280;54319;52.038;4.640;2024-01-07T07:41:00;102367.94;;;0.13;100.00
67457;BME280;54319;52.038;4.640;2024-01-07T07:43:27;102376.88;;;0.13;100.00
67457;BME280;54319;52.038;4.640;2024-01-07T07:45:55;102374.28;;;0.12;100.00
67457;BME280;54319;52.038;4.640;2024-01-07T07:48:21;102388.56;;;0.12;100.00
67457;BME280;54319;52.038;4.640;2024-01-07T07:50:51;102382.44;;;0.10;100.00
67457;BME280;54319;52.038;4.640;2024-01-07T07:53:19;102388.03;;;0.07;100.00
67457;BME280;54319;52.038;4.640;2024-01-07T07:55:46;102398.56;;;0.10;100.00
67457;BME280;54319;52.038;4.640;2024-01-07T07:58:12;102396.94;;;0.08;100.00
67457;BME280;54319;52.038;4.640;2024-01-07T08:00:39;102398.63;;;0.09;100.00
67457;BME280;54319;52.038;4.640;2024-01-07T08:03:06;102394.25;;;0.08;100.00
67457;BME280;54319;52.038;4.640;2024-01-07T08:05:32;102405.72;;;0.10;100.00
67457;BME280;54319;52.038;4.640;2024-01-07T08:07:59;102404.88;;;0.09;100.00
67457;BME280;54319;52.038;4.640;2024-01-07T08:10:27;102392.84;;;0.02;100.00
67457;BME280;54319;52.038;4.640;2024-01-07T08:12:57;102394.22;;;-0.05;100.00
67457;BME280;54319;52.038;4.640;2024-01-07T08:15:23;102410.47;;;0.06;100.00
67457;BME280;54319;52.038;4.640;2024-01-07T08:17:51;102408.53;;;0.08;100.00
67457;BME280;54319;52.038;4.640;2024-01-07T08:20:18;102421.41;;;0.03;100.00
67457;BME280;54319;52.038;4.640;2024-01-07T08:22:44;102423.34;;;0.01;100.00
67457;BME280;54319;52.038;4.640;2024-01-07T08:25:11;102412.16;;;-0.06;100.00
67457;BME280;54319;52.038;4.640;2024-01-07T08:27:40;102426.78;;;0.03;100.00
67457;BME280;54319;52.038;4.640;2024-01-07T08:30:08;102434.91;;;0.02;100.00
67457;BME280;54319;52.038;4.640;2024-01-07T08:32:35;102434.69;;;0.05;100.00
67457;BME280;54319;52.038;4.640;2024-01-07T08:35:02;102438.56;;;0.01;100.00
67457;BME280;54319;52.038;4.640;2024-01-07T08:37:29;102440.41;;;0.00;100.00
67457;BME280;54319;52.038;4.640;2024-01-07T08:39:55;102446.69;;;-0.01;100.00
67457;BME280;54319;52.038;4.640;2024-01-07T08:42:22;102443.84;;;0.02;100.00
67457;BME280;54319;52.038;4.640;2024-01-07T08:44:51;102444.81;;;0.01;100.00
67457;BME280;54319;52.038;4.640;2024-01-07T08:47:18;102431.22;;;-0.10;100.00
67457;BME280;54319;52.038;4.640;2024-01-07T08:49:45;102456.16;;;0.05;100.00
67457;BME280;54319;52.038;4.640;2024-01-07T08:52:11;102430.47;;;-0.12;100.00
67457;BME280;54319;52.038;4.640;2024-01-07T08:54:38;102467.03;;;0.03;100.00
67457;BME280;54319;52.038;4.640;2024-01-07T08:57:05;102471.63;;;0.01;100.00
67457;BME280;54319;52.038;4.640;2024-01-07T08:59:33;102465.47;;;-0.01;100.00
67457;BME280;54319;52.038;4.640;2024-01-07T09:02:02;102473.16;;;0.05;100.00
67457;BME280;54319;52.038;4.640;2024-01-07T09:04:28;102468.16;;;-0.01;100.00
67457;BME280;54319;52.038;4.640;2024-01-07T09:06:55;102469.03;;;-0.01;100.00
67457;BME280;54319;52.038;4.640;2024-01-07T09:09:22;102472.28;;;0.05;100.00
67457;BME280;54319;52.038;4.640;2024-01-07T09:11:52;102467.22;;;0.00;100.00
67457;BME280;54319;52.038;4.640;2024-01-07T09:14:18;102479.69;;;0.01;100.00
67457;BME280;54319;52.038;4.640;2024-01-07T09:16:45;102457.41;;;-0.14;100.00
67457;BME280;54319;52.038;4.640;2024-01-07T09:19:13;102486.09;;;-0.02;100.00
67457;BME280;54319;52.038;4.640;2024-01-07T09:21:42;102489.00;;;-0.05;100.00
67457;BME280;54319;52.038;4.640;2024-01-07T09:24:10;102493.19;;;-0.01;100.00
67457;BME280;54319;52.038;4.640;2024-01-07T09:26:37;102443.59;;;-0.35;100.00
67457;BME280;54319;52.038;4.640;2024-01-07T09:29:04;102502.97;;;0.01;100.00
67457;BME280;54319;52.038;4.640;2024-01-07T09:31:30;102510.34;;;-0.03;100.00
67457;BME280;54319;52.038;4.640;2024-01-07T09:33:57;102512.94;;;-0.02;100.00
67457;BME280;54319;52.038;4.640;2024-01-07T09:36:25;102516.66;;;-0.04;100.00
67457;BME280;54319;52.038;4.640;2024-01-07T09:38:52;102512.78;;;-0.13;100.00
67457;BME280;54319;52.038;4.640;2024-01-07T09:41:19;102514.31;;;-0.09;100.00
67457;BME280;54319;52.038;4.640;2024-01-07T09:43:46;102530.28;;;-0.07;100.00
67457;BME280;54319;52.038;4.640;2024-01-07T09:46:13;102530.19;;;-0.06;100.00
67457;BME280;54319;52.038;4.640;2024-01-07T09:48:40;102534.25;;;-0.13;100.00
67457;BME280;54319;52.038;4.640;2024-01-07T09:51:09;102526.09;;;-0.11;100.00
67457;BME280;54319;52.038;4.640;2024-01-07T09:53:39;102532.13;;;-0.08;100.00
67457;BME280;54319;52.038;4.640;2024-01-07T09:56:18;102550.78;;;-0.06;100.00
67457;BME280;54319;52.038;4.640;2024-01-07T09:58:46;102519.50;;;-0.20;100.00
67457;BME280;54319;52.038;4.640;2024-01-07T10:01:16;102529.94;;;-0.16;100.00
67457;BME280;54319;52.038;4.640;2024-01-07T10:03:45;102560.75;;;-0.08;100.00
67457;BME280;54319;52.038;4.640;2024-01-07T10:06:12;102556.06;;;-0.05;100.00
67457;BME280;54319;52.038;4.640;2024-01-07T10:08:40;102563.34;;;-0.07;100.00
67457;BME280;54319;52.038;4.640;2024-01-07T10:11:07;102556.06;;;-0.05;100.00
67457;BME280;54319;52.038;4.640;2024-01-07T10:13:34;102562.66;;;0.04;100.00
67457;BME280;54319;52.038;4.640;2024-01-07T10:16:01;102556.34;;;0.05;100.00
67457;BME280;54319;52.038;4.640;2024-01-07T10:18:28;102553.44;;;0.08;100.00
67457;BME280;54319;52.038;4.640;2024-01-07T10:21:01;102559.09;;;0.04;100.00
67457;BME280;54319;52.038;4.640;2024-01-07T10:23:29;102522.50;;;-0.25;100.00
67457;BME280;54319;52.038;4.640;2024-01-07T10:25:57;102568.03;;;0.04;100.00
67457;BME280;54319;52.038;4.640;2024-01-07T10:28:24;102571.69;;;0.03;100.00
67457;BME280;54319;52.038;4.640;2024-01-07T10:30:50;102561.16;;;0.00;100.00
67457;BME280;54319;52.038;4.640;2024-01-07T10:33:18;102573.19;;;0.07;100.00
67457;BME280;54319;52.038;4.640;2024-01-07T10:36:01;102579.53;;;0.06;100.00
67457;BME280;54319;52.038;4.640;2024-01-07T10:38:29;102571.75;;;0.02;100.00
67457;BME280;54319;52.038;4.640;2024-01-07T10:40:58;102597.03;;;0.12;100.00
67457;BME280;54319;52.038;4.640;2024-01-07T10:43:26;102587.16;;;0.12;100.00
67457;BME280;54319;52.038;4.640;2024-01-07T10:45:55;102598.25;;;0.21;100.00
67457;BME280;54319;52.038;4.640;2024-01-07T10:48:25;102592.41;;;0.14;100.00
67457;BME280;54319;52.038;4.640;2024-01-07T10:50:59;102585.88;;;0.18;100.00
67457;BME280;54319;52.038;4.640;2024-01-07T10:53:28;102589.78;;;0.27;100.00
67457;BME280;54319;52.038;4.640;2024-01-07T10:56:03;102593.91;;;0.33;100.00
67457;BME280;54319;52.038;4.640;2024-01-07T10:58:32;102603.19;;;0.41;100.00
67457;BME280;54319;52.038;4.640;2024-01-07T11:01:01;102601.34;;;0.42;100.00
67457;BME280;54319;52.038;4.640;2024-01-07T11:03:35;102592.44;;;0.41;100.00
67457;BME280;54319;52.038;4.640;2024-01-07T11:06:10;102588.38;;;0.49;100.00
67457;BME280;54319;52.038;4.640;2024-01-07T11:08:45;102578.59;;;0.48;100.00
67457;BME280;54319;52.038;4.640;2024-01-07T11:11:16;102582.34;;;0.45;100.00
67457;BME280;54319;52.038;4.640;2024-01-07T11:13:46;102587.63;;;0.47;100.00
67457;BME280;54319;52.038;4.640;2024-01-07T11:16:12;102574.19;;;0.47;100.00
67457;BME280;54319;52.038;4.640;2024-01-07T11:18:40;102575.72;;;0.51;100.00
67457;BME280;54319;52.038;4.640;2024-01-07T11:21:06;102572.06;;;0.52;100.00
67457;BME280;54319;52.038;4.640;2024-01-07T11:23:34;102585.28;;;0.55;100.00
67457;BME280;54319;52.038;4.640;2024-01-07T11:26:06;102561.28;;;0.39;100.00
67457;BME280;54319;52.038;4.640;2024-01-07T11:28:50;102585.94;;;0.59;100.00
67457;BME280;54319;52.038;4.640;2024-01-07T11:31:19;102594.66;;;0.62;100.00
67457;BME280;54319;52.038;4.640;2024-01-07T11:33:47;102581.84;;;0.53;100.00
67457;BME280;54319;52.038;4.640;2024-01-07T11:36:15;102588.69;;;0.44;100.00
67457;BME280;54319;52.038;4.640;2024-01-07T11:38:42;102586.66;;;0.48;100.00
67457;BME280;54319;52.038;4.640;2024-01-07T11:41:11;102593.34;;;0.55;100.00
67457;BME280;54319;52.038;4.640;2024-01-07T11:43:38;102594.31;;;0.54;100.00
67457;BME280;54319;52.038;4.640;2024-01-07T11:46:08;102608.84;;;0.64;100.00
67457;BME280;54319;52.038;4.640;2024-01-07T11:48:36;102591.44;;;0.70;100.00
67457;BME280;54319;52.038;4.640;2024-01-07T11:51:04;102593.41;;;0.81;100.00
67457;BME280;54319;52.038;4.640;2024-01-07T11:53:30;102594.25;;;0.81;100.00
67457;BME280;54319;52.038;4.640;2024-01-07T11:55:57;102591.16;;;0.88;100.00
67457;BME280;54319;52.038;4.640;2024-01-07T11:58:25;102582.66;;;0.81;100.00
67457;BME280;54319;52.038;4.640;2024-01-07T12:00:52;102609.97;;;1.00;100.00
67457;BME280;54319;52.038;4.640;2024-01-07T12:03:20;102605.34;;;1.03;100.00
67457;BME280;54319;52.038;4.640;2024-01-07T12:05:47;102605.91;;;1.08;100.00
67457;BME280;54319;52.038;4.640;2024-01-07T12:08:14;102611.81;;;1.13;100.00
67457;BME280;54319;52.038;4.640;2024-01-07T12:10:41;102607.84;;;1.19;100.00
67457;BME280;54319;52.038;4.640;2024-01-07T12:13:08;102614.28;;;1.29;100.00
67457;BME280;54319;52.038;4.640;2024-01-07T12:15:37;102618.69;;;1.30;100.00
67457;BME280;54319;52.038;4.640;2024-01-07T12:18:05;102619.03;;;1.25;100.00
67457;BME280;54319;52.038;4.640;2024-01-07T12:20:33;102616.13;;;1.15;100.00
67457;BME280;54319;52.038;4.640;2024-01-07T12:23:05;102627.94;;;1.13;100.00
67457;BME280;54319;52.038;4.640;2024-01-07T12:25:33;102626.13;;;1.13;100.00
67457;BME280;54319;52.038;4.640;2024-01-07T12:28:00;102620.53;;;1.17;100.00
67457;BME280;54319;52.038;4.640;2024-01-07T12:30:27;102612.91;;;1.10;100.00
67457;BME280;54319;52.038;4.640;2024-01-07T12:32:56;102626.78;;;1.17;100.00
67457;BME280;54319;52.038;4.640;2024-01-07T12:35:25;102632.16;;;1.17;100.00
67457;BME280;54319;52.038;4.640;2024-01-07T12:37:53;102624.50;;;0.98;100.00
67457;BME280;54319;52.038;4.640;2024-01-07T12:40:21;102634.16;;;1.00;100.00
67457;BME280;54319;52.038;4.640;2024-01-07T12:42:50;102627.94;;;1.13;100.00
67457;BME280;54319;52.038;4.640;2024-01-07T12:45:16;102643.13;;;1.40;100.00
67457;BME280;54319;52.038;4.640;2024-01-07T12:47:43;102613.78;;;1.50;100.00
67457;BME280;54319;52.038;4.640;2024-01-07T12:50:11;102639.56;;;1.78;100.00